sensor_id;sensor_type;location;lat;lon;timestamp;pressure;altitude;pressure_sealevel;temperature;humidity
33496;BME280;19836;55.812;37.560;2023-07-13T00:00:38;98679.69;;;14.39;72.93
33496;BME280;19836;55.812;37.560;2023-07-13T00:03:04;98667.94;;;14.40;73.21
33496;BME280;19836;55.812;37.560;2023-07-13T00:05:30;98665.25;;;14.40;73.27
33496;BME280;19836;55.812;37.560;2023-07-13T00:07:57;98673.25;;;14.42;73.48
33496;BME280;19836;55.812;37.560;2023-07-13T00:10:23;98679.50;;;14.42;73.54
33496;BME280;19836;55.812;37.560;2023-07-13T00:12:50;98682.97;;;14.44;73.32
33496;BME280;19836;55.812;37.560;2023-07-13T00:15:21;98674.78;;;14.46;73.77
33496;BME280;19836;55.812;37.560;2023-07-13T00:17:49;98672.75;;;14.49;73.24
33496;BME280;19836;55.812;37.560;2023-07-13T00:20:16;98676.34;;;14.50;73.95
33496;BME280;19836;55.812;37.560;2023-07-13T00:22:42;98671.78;;;14.50;73.85
33496;BME280;19836;55.812;37.560;2023-07-13T00:25:10;98668.16;;;14.51;73.69
33496;BME280;19836;55.812;37.560;2023-07-13T00:27:37;98664.50;;;14.52;74.10
33496;BME280;19836;55.812;37.560;2023-07-13T00:30:04;98659.88;;;14.54;73.91
33496;BME280;19836;55.812;37.560;2023-07-13T00:32:31;98658.72;;;14.58;73.70
33496;BME280;19836;55.812;37.560;2023-07-13T00:34:58;98669.31;;;14.61;74.06
33496;BME280;19836;55.812;37.560;2023-07-13T00:37:26;98663.03;;;14.61;73.81
33496;BME280;19836;55.812;37.560;2023-07-13T00:39:52;98663.03;;;14.61;73.40
33496;BME280;19836;55.812;37.560;2023-07-13T00:42:18;98661.09;;;14.63;73.87
33496;BME280;19836;55.812;37.560;2023-07-13T00:47:50;98658.22;;;14.66;73.88
33496;BME280;19836;55.812;37.560;2023-07-13T00:50:16;98660.84;;;14.67;73.59
33496;BME280;19836;55.812;37.560;2023-07-13T00:52:46;98663.72;;;14.64;73.74
33496;BME280;19836;55.812;37.560;2023-07-13T00:55:14;98661.91;;;14.65;73.68
33496;BME280;19836;55.812;37.560;2023-07-13T00:57:42;98664.69;;;14.63;74.03
33496;BME280;19836;55.812;37.560;2023-07-13T01:00:09;98662.75;;;14.65;74.04
33496;BME280;19836;55.812;37.560;2023-07-13T01:02:40;98651.97;;;14.65;73.80
33496;BME280;19836;55.812;37.560;2023-07-13T01:05:12;98654.66;;;14.65;73.91
33496;BME280;19836;55.812;37.560;2023-07-13T01:07:41;98661.81;;;14.66;74.03
33496;BME280;19836;55.812;37.560;2023-07-13T01:10:07;98652.09;;;14.64;73.93
33496;BME280;19836;55.812;37.560;2023-07-13T01:12:34;98644.84;;;14.64;74.05
33496;BME280;19836;55.812;37.560;2023-07-13T01:15:01;98655.63;;;14.64;73.95
33496;BME280;19836;55.812;37.560;2023-07-13T01:17:29;98649.25;;;14.65;73.87
33496;BME280;19836;55.812;37.560;2023-07-13T01:19:55;98652.94;;;14.64;73.86
33496;BME280;19836;55.812;37.560;2023-07-13T01:22:22;98648.59;;;14.62;74.34
33496;BME280;19836;55.812;37.560;2023-07-13T01:24:51;98646.78;;;14.62;74.33
33496;BME280;19836;55.812;37.560;2023-07-13T01:27:21;98651.38;;;14.60;74.07
33496;BME280;19836;55.812;37.560;2023-07-13T01:29:48;98651.38;;;14.60;73.95
33496;BME280;19836;55.812;37.560;2023-07-13T01:32:17;98646.00;;;14.60;73.94
33496;BME280;19836;55.812;37.560;2023-07-13T01:34:47;98647.75;;;14.61;73.81
33496;BME280;19836;55.812;37.560;2023-07-13T01:37:15;98641.56;;;14.59;74.18
33496;BME280;19836;55.812;37.560;2023-07-13T01:39:40;98639.09;;;14.56;74.46
33496;BME280;19836;55.812;37.560;2023-07-13T01:42:06;98638.88;;;14.59;74.34
33496;BME280;19836;55.812;37.560;2023-07-13T01:44:32;98637.16;;;14.58;74.01
33496;BME280;19836;55.812;37.560;2023-07-13T01:46:58;98633.56;;;14.58;74.17
33496;BME280;19836;55.812;37.560;2023-07-13T01:49:24;98638.13;;;14.57;74.33
33496;BME280;19836;55.812;37.560;2023-07-13T01:51:50;98638.88;;;14.59;74.58
33496;BME280;19836;55.812;37.560;2023-07-13T01:54:16;98634.16;;;14.63;74.48
33496;BME280;19836;55.812;37.560;2023-07-13T01:56:42;98633.09;;;14.65;74.50
33496;BME280;19836;55.812;37.560;2023-07-13T01:59:09;98629.44;;;14.66;74.67
33496;BME280;19836;55.812;37.560;2023-07-13T02:01:35;98632.91;;;14.68;74.39
33496;BME280;19836;55.812;37.560;2023-07-13T02:04:02;98628.47;;;14.67;74.20
33496;BME280;19836;55.812;37.560;2023-07-13T02:06:32;98620.38;;;14.67;74.36
33496;BME280;19836;55.812;37.560;2023-07-13T02:08:58;98616.63;;;14.70;74.39
33496;BME280;19836;55.812;37.560;2023-07-13T02:11:25;98620.00;;;14.73;74.53
33496;BME280;19836;55.812;37.560;2023-07-13T02:14:02;98617.88;;;14.78;74.78
33496;BME280;19836;55.812;37.560;2023-07-13T02:16:28;98618.53;;;14.82;74.70
33496;BME280;19836;55.812;37.560;2023-07-13T02:18:55;98612.28;;;14.81;74.24
33496;BME280;19836;55.812;37.560;2023-07-13T02:21:22;98619.41;;;14.82;74.24
33496;BME280;19836;55.812;37.560;2023-07-13T02:23:51;98609.47;;;14.83;74.14
33496;BME280;19836;55.812;37.560;2023-07-13T02:26:18;98619.19;;;14.85;73.99
33496;BME280;19836;55.812;37.560;2023-07-13T02:28:44;98609.38;;;14.84;73.88
33496;BME280;19836;55.812;37.560;2023-07-13T02:31:13;98612.63;;;14.89;73.78
33496;BME280;19836;55.812;37.560;2023-07-13T02:33:39;98607.88;;;14.93;73.76
33496;BME280;19836;55.812;37.560;2023-07-13T02:36:06;98606.06;;;14.93;74.00
33496;BME280;19836;55.812;37.560;2023-07-13T02:38:33;98607.81;;;14.94;73.56
33496;BME280;19836;55.812;37.560;2023-07-13T02:41:05;98609.34;;;14.98;73.65
33496;BME280;19836;55.812;37.560;2023-07-13T02:43:32;98614.53;;;15.01;73.43
33496;BME280;19836;55.812;37.560;2023-07-13T02:46:01;98607.38;;;15.00;73.70
33496;BME280;19836;55.812;37.560;2023-07-13T02:48:34;98609.34;;;14.98;73.52
33496;BME280;19836;55.812;37.560;2023-07-13T02:51:00;98612.03;;;14.98;73.84
33496;BME280;19836;55.812;37.560;2023-07-13T02:53:26;98606.63;;;14.98;73.77
33496;BME280;19836;55.812;37.560;2023-07-13T02:55:53;98609.16;;;15.01;73.24
33496;BME280;19836;55.812;37.560;2023-07-13T02:58:19;98612.91;;;14.99;73.22
33496;BME280;19836;55.812;37.560;2023-07-13T03:00:46;98603.69;;;14.89;72.85
33496;BME280;19836;55.812;37.560;2023-07-13T03:03:14;98601.28;;;14.84;73.37
33496;BME280;19836;55.812;37.560;2023-07-13T03:05:42;98597.72;;;14.84;73.34
33496;BME280;19836;55.812;37.560;2023-07-13T03:08:09;98595.88;;;14.84;73.81
33496;BME280;19836;55.812;37.560;2023-07-13T03:10:36;98593.75;;;14.89;73.47
33496;BME280;19836;55.812;37.560;2023-07-13T03:13:03;98587.28;;;14.92;72.89
33496;BME280;19836;55.812;37.560;2023-07-13T03:15:29;98600.69;;;14.93;73.26
33496;BME280;19836;55.812;37.560;2023-07-13T03:17:57;98600.69;;;14.93;73.31
33496;BME280;19836;55.812;37.560;2023-07-13T03:20:23;98604.34;;;14.92;73.03
33496;BME280;19836;55.812;37.560;2023-07-13T03:22:49;98602.63;;;14.91;73.07
33496;BME280;19836;55.812;37.560;2023-07-13T03:25:16;98611.66;;;14.90;73.36
33496;BME280;19836;55.812;37.560;2023-07-13T03:27:42;98609.84;;;14.91;73.23
33496;BME280;19836;55.812;37.560;2023-07-13T03:30:09;98608.97;;;14.90;72.92
33496;BME280;19836;55.812;37.560;2023-07-13T03:32:35;98611.47;;;14.93;73.28
33496;BME280;19836;55.812;37.560;2023-07-13T03:35:01;98614.91;;;14.95;73.47
33496;BME280;19836;55.812;37.560;2023-07-13T03:37:30;98613.84;;;14.98;73.16
33496;BME280;19836;55.812;37.560;2023-07-13T03:39:56;98610.09;;;15.00;73.34
33496;BME280;19836;55.812;37.560;2023-07-13T03:42:22;98603.44;;;15.06;73.19
33496;BME280;19836;55.812;37.560;2023-07-13T03:44:52;98612.84;;;15.13;73.39
33496;BME280;19836;55.812;37.560;2023-07-13T03:47:19;98613.53;;;15.16;73.18
33496;BME280;19836;55.812;37.560;2023-07-13T03:49:46;98608.78;;;15.20;72.70
33496;BME280;19836;55.812;37.560;2023-07-13T03:52:13;98609.44;;;15.23;72.73
33496;BME280;19836;55.812;37.560;2023-07-13T03:54:39;98612.59;;;15.30;72.51
33496;BME280;19836;55.812;37.560;2023-07-13T03:57:06;98618.75;;;15.32;72.82
33496;BME280;19836;55.812;37.560;2023-07-13T03:59:35;98608.84;;;15.32;72.46
33496;BME280;19836;55.812;37.560;2023-07-13T04:02:01;98612.69;;;15.42;72.43
33496;BME280;19836;55.812;37.560;2023-07-13T04:04:32;98611.94;;;15.53;72.06
33496;BME280;19836;55.812;37.560;2023-07-13T04:06:58;98617.59;;;15.62;72.11
33496;BME280;19836;55.812;37.560;2023-07-13T04:09:25;98616.09;;;15.71;71.92
33496;BME280;19836;55.812;37.560;2023-07-13T04:11:50;98622.13;;;15.74;71.50
33496;BME280;19836;55.812;37.560;2023-07-13T04:14:16;98625.81;;;15.73;71.33
33496;BME280;19836;55.812;37.560;2023-07-13T04:16:44;98624.19;;;15.71;71.38
33496;BME280;19836;55.812;37.560;2023-07-13T04:19:10;98622.75;;;15.65;71.57
33496;BME280;19836;55.812;37.560;2023-07-13T04:21:37;98623.94;;;15.61;71.39
33496;BME280;19836;55.812;37.560;2023-07-13T04:24:03;98626.88;;;15.58;71.60
33496;BME280;19836;55.812;37.560;2023-07-13T04:26:30;98620.69;;;15.56;71.55
33496;BME280;19836;55.812;37.560;2023-07-13T04:28:57;98621.88;;;15.52;71.59
33496;BME280;19836;55.812;37.560;2023-07-13T04:31:23;98612.91;;;15.52;71.69
33496;BME280;19836;55.812;37.560;2023-07-13T04:33:49;98620.81;;;15.55;71.68
33496;BME280;19836;55.812;37.560;2023-07-13T04:36:16;98617.97;;;15.56;72.15
33496;BME280;19836;55.812;37.560;2023-07-13T04:38:42;98609.78;;;15.58;71.80
33496;BME280;19836;55.812;37.560;2023-07-13T04:41:09;98621.22;;;15.61;71.56
33496;BME280;19836;55.812;37.560;2023-07-13T04:43:35;98621.03;;;15.64;71.71
33496;BME280;19836;55.812;37.560;2023-07-13T04:46:07;98612.59;;;15.69;71.65
33496;BME280;19836;55.812;37.560;2023-07-13T04:48:33;98606.81;;;15.75;71.55
33496;BME280;19836;55.812;37.560;2023-07-13T04:51:00;98603.78;;;15.79;71.52
33496;BME280;19836;55.812;37.560;2023-07-13T04:53:26;98597.94;;;15.85;71.72
33496;BME280;19836;55.812;37.560;2023-07-13T04:55:52;98607.38;;;15.92;71.60
33496;BME280;19836;55.812;37.560;2023-07-13T04:58:18;98609.63;;;15.98;71.39
33496;BME280;19836;55.812;37.560;2023-07-13T05:00:44;98614.63;;;16.04;71.12
33496;BME280;19836;55.812;37.560;2023-07-13T05:03:10;98624.56;;;16.16;71.31
33496;BME280;19836;55.812;37.560;2023-07-13T05:05:36;98622.53;;;16.32;70.83
33496;BME280;19836;55.812;37.560;2023-07-13T05:08:02;98618.06;;;16.56;70.51
33496;BME280;19836;55.812;37.560;2023-07-13T05:10:28;98620.19;;;16.76;70.00
33496;BME280;19836;55.812;37.560;2023-07-13T05:12:54;98624.50;;;16.91;69.40
33496;BME280;19836;55.812;37.560;2023-07-13T05:15:22;98626.53;;;17.00;68.66
33496;BME280;19836;55.812;37.560;2023-07-13T05:17:49;98620.78;;;17.05;68.31
33496;BME280;19836;55.812;37.560;2023-07-13T05:20:15;98629.66;;;17.07;68.19
33496;BME280;19836;55.812;37.560;2023-07-13T05:22:42;98633.97;;;17.09;68.24
33496;BME280;19836;55.812;37.560;2023-07-13T05:25:09;98630.69;;;17.17;67.77
33496;BME280;19836;55.812;37.560;2023-07-13T05:27:35;98629.59;;;17.19;67.47
33496;BME280;19836;55.812;37.560;2023-07-13T05:30:03;98624.13;;;17.32;67.21
33496;BME280;19836;55.812;37.560;2023-07-13T05:32:30;98616.88;;;17.45;67.22
33496;BME280;19836;55.812;37.560;2023-07-13T05:34:56;98618.53;;;17.58;66.76
33496;BME280;19836;55.812;37.560;2023-07-13T05:37:22;98606.91;;;17.56;66.19
33496;BME280;19836;55.812;37.560;2023-07-13T05:39:48;98619.00;;;17.52;66.18
33496;BME280;19836;55.812;37.560;2023-07-13T05:42:14;98613.16;;;17.46;65.80
33496;BME280;19836;55.812;37.560;2023-07-13T05:44:40;98620.41;;;17.45;65.42
33496;BME280;19836;55.812;37.560;2023-07-13T05:47:06;98619.22;;;17.49;65.41
33496;BME280;19836;55.812;37.560;2023-07-13T05:49:33;98613.84;;;17.60;65.37
33496;BME280;19836;55.812;37.560;2023-07-13T05:51:58;98610.53;;;17.68;64.71
33496;BME280;19836;55.812;37.560;2023-07-13T05:54:24;98617.88;;;17.78;64.58
33496;BME280;19836;55.812;37.560;2023-07-13T05:56:50;98612.97;;;17.94;64.41
33496;BME280;19836;55.812;37.560;2023-07-13T05:59:17;98611.16;;;18.06;64.07
33496;BME280;19836;55.812;37.560;2023-07-13T06:01:44;98607.84;;;18.13;63.96
33496;BME280;19836;55.812;37.560;2023-07-13T06:04:09;98603.38;;;18.12;63.17
33496;BME280;19836;55.812;37.560;2023-07-13T06:06:36;98606.59;;;18.17;63.30
33496;BME280;19836;55.812;37.560;2023-07-13T06:09:02;98597.13;;;18.23;63.10
33496;BME280;19836;55.812;37.560;2023-07-13T06:11:28;98596.91;;;18.26;63.04
33496;BME280;19836;55.812;37.560;2023-07-13T06:13:56;98591.63;;;18.35;62.96
33496;BME280;19836;55.812;37.560;2023-07-13T06:16:22;98592.13;;;18.51;62.66
33496;BME280;19836;55.812;37.560;2023-07-13T06:18:48;98585.47;;;18.66;62.38
33496;BME280;19836;55.812;37.560;2023-07-13T06:21:16;98584.22;;;18.70;61.51
33496;BME280;19836;55.812;37.560;2023-07-13T06:23:43;98586.72;;;18.73;61.36
33496;BME280;19836;55.812;37.560;2023-07-13T06:26:10;98575.34;;;18.79;60.46
33496;BME280;19836;55.812;37.560;2023-07-13T06:28:37;98569.16;;;18.77;59.87
33496;BME280;19836;55.812;37.560;2023-07-13T06:31:08;98568.28;;;18.88;59.71
33496;BME280;19836;55.812;37.560;2023-07-13T06:33:35;98567.28;;;19.00;58.99
33496;BME280;19836;55.812;37.560;2023-07-13T06:36:02;98569.72;;;19.14;58.71
33496;BME280;19836;55.812;37.560;2023-07-13T06:38:29;98571.06;;;19.30;58.24
33496;BME280;19836;55.812;37.560;2023-07-13T06:40:55;98568.94;;;19.34;57.70
33496;BME280;19836;55.812;37.560;2023-07-13T06:43:21;98576.63;;;19.18;57.48
33496;BME280;19836;55.812;37.560;2023-07-13T06:45:49;98584.81;;;19.07;57.95
33496;BME280;19836;55.812;37.560;2023-07-13T06:48:16;98581.75;;;18.89;58.08
33496;BME280;19836;55.812;37.560;2023-07-13T06:50:43;98572.66;;;18.68;58.38
33496;BME280;19836;55.812;37.560;2023-07-13T06:53:10;98578.81;;;18.48;58.79
33496;BME280;19836;55.812;37.560;2023-07-13T06:55:36;98578.53;;;18.18;59.47
33496;BME280;19836;55.812;37.560;2023-07-13T06:58:03;98578.72;;;17.93;59.91
33496;BME280;19836;55.812;37.560;2023-07-13T07:00:29;98576.25;;;17.90;60.85
33496;BME280;19836;55.812;37.560;2023-07-13T07:02:55;98570.22;;;17.98;60.97
33496;BME280;19836;55.812;37.560;2023-07-13T07:05:21;98569.13;;;18.00;61.17
33496;BME280;19836;55.812;37.560;2023-07-13T07:07:51;98570.25;;;18.09;60.89
33496;BME280;19836;55.812;37.560;2023-07-13T07:10:19;98569.91;;;18.24;61.15
33496;BME280;19836;55.812;37.560;2023-07-13T07:12:45;98563.78;;;18.44;60.36
33496;BME280;19836;55.812;37.560;2023-07-13T07:15:12;98560.81;;;18.69;59.88
33496;BME280;19836;55.812;37.560;2023-07-13T07:17:38;98570.63;;;18.92;58.93
33496;BME280;19836;55.812;37.560;2023-07-13T07:20:05;98566.16;;;19.02;58.29
33496;BME280;19836;55.812;37.560;2023-07-13T07:22:31;98565.78;;;19.07;58.04
33496;BME280;19836;55.812;37.560;2023-07-13T07:24:57;98570.09;;;19.09;57.63
33496;BME280;19836;55.812;37.560;2023-07-13T07:27:23;98580.84;;;19.00;57.91
33496;BME280;19836;55.812;37.560;2023-07-13T07:29:50;98585.78;;;18.95;58.06
33496;BME280;19836;55.812;37.560;2023-07-13T07:32:16;98591.00;;;18.87;57.78
33496;BME280;19836;55.812;37.560;2023-07-13T07:34:42;98587.69;;;18.72;58.16
33496;BME280;19836;55.812;37.560;2023-07-13T07:37:12;98602.00;;;18.63;58.55
33496;BME280;19836;55.812;37.560;2023-07-13T07:39:38;98601.34;;;18.27;59.67
33496;BME280;19836;55.812;37.560;2023-07-13T07:42:04;98610.78;;;17.99;60.73
33496;BME280;19836;55.812;37.560;2023-07-13T07:44:31;98618.47;;;17.82;61.89
33496;BME280;19836;55.812;37.560;2023-07-13T07:46:58;98612.44;;;17.78;63.03
33496;BME280;19836;55.812;37.560;2023-07-13T07:49:24;98617.09;;;17.76;62.87
33496;BME280;19836;55.812;37.560;2023-07-13T07:51:50;98622.66;;;17.75;62.65
33496;BME280;19836;55.812;37.560;2023-07-13T07:54:17;98609.13;;;17.75;63.13
33496;BME280;19836;55.812;37.560;2023-07-13T07:56:43;98606.75;;;17.81;63.35
33496;BME280;19836;55.812;37.560;2023-07-13T07:59:09;98612.94;;;17.83;63.22
33496;BME280;19836;55.812;37.560;2023-07-13T08:01:35;98612.84;;;17.85;63.28
33496;BME280;19836;55.812;37.560;2023-07-13T08:04:01;98604.72;;;17.85;63.66
33496;BME280;19836;55.812;37.560;2023-07-13T08:06:28;98597.19;;;17.88;63.92
33496;BME280;19836;55.812;37.560;2023-07-13T08:08:55;98600.16;;;17.96;63.87
33496;BME280;19836;55.812;37.560;2023-07-13T08:11:22;98602.28;;;18.04;63.52
33496;BME280;19836;55.812;37.560;2023-07-13T08:13:49;98608.09;;;18.10;62.94
33496;BME280;19836;55.812;37.560;2023-07-13T08:16:14;98597.00;;;18.13;62.79
33496;BME280;19836;55.812;37.560;2023-07-13T08:18:40;98592.91;;;18.08;62.76
33496;BME280;19836;55.812;37.560;2023-07-13T08:21:08;98591.69;;;18.12;62.59
33496;BME280;19836;55.812;37.560;2023-07-13T08:23:34;98596.13;;;18.13;62.60
33496;BME280;19836;55.812;37.560;2023-07-13T08:26:01;98593.53;;;18.11;62.56
33496;BME280;19836;55.812;37.560;2023-07-13T08:28:28;98597.63;;;18.06;62.81
33496;BME280;19836;55.812;37.560;2023-07-13T08:30:54;98599.94;;;17.99;62.58
33496;BME280;19836;55.812;37.560;2023-07-13T08:33:21;98603.47;;;17.89;63.05
33496;BME280;19836;55.812;37.560;2023-07-13T08:35:50;98601.44;;;17.69;63.57
33496;BME280;19836;55.812;37.560;2023-07-13T08:38:17;98611.13;;;17.60;64.17
33496;BME280;19836;55.812;37.560;2023-07-13T08:40:43;98611.50;;;17.56;64.20
33496;BME280;19836;55.812;37.560;2023-07-13T08:43:30;98607.00;;;17.67;64.43
33496;BME280;19836;55.812;37.560;2023-07-13T08:48:43;98611.47;;;17.79;64.09
33496;BME280;19836;55.812;37.560;2023-07-13T08:54:02;98628.25;;;17.37;65.64
33496;BME280;19836;55.812;37.560;2023-07-13T08:56:30;98637.50;;;17.22;67.07
33496;BME280;19836;55.812;37.560;2023-07-13T08:58:58;98631.06;;;17.12;68.14
33496;BME280;19836;55.812;37.560;2023-07-13T09:04:45;98630.78;;;16.92;70.40
33496;BME280;19836;55.812;37.560;2023-07-13T09:07:25;98632.22;;;16.85;71.72
33496;BME280;19836;55.812;37.560;2023-07-13T09:13:25;98642.53;;;16.67;72.95
33496;BME280;19836;55.812;37.560;2023-07-13T09:15:34;98645.53;;;16.63;73.65
33496;BME280;19836;55.812;37.560;2023-07-13T09:18:10;98643.47;;;16.66;74.36
33496;BME280;19836;55.812;37.560;2023-07-13T09:20:42;98648.78;;;16.68;75.19
33496;BME280;19836;55.812;37.560;2023-07-13T09:23:22;98644.00;;;16.71;75.51
33496;BME280;19836;55.812;37.560;2023-07-13T09:25:53;98653.75;;;16.74;75.82
33496;BME280;19836;55.812;37.560;2023-07-13T09:28:26;98639.38;;;16.73;76.16
33496;BME280;19836;55.812;37.560;2023-07-13T09:31:03;98645.00;;;16.70;76.31
33496;BME280;19836;55.812;37.560;2023-07-13T09:33:30;98647.41;;;16.62;76.60
33496;BME280;19836;55.812;37.560;2023-07-13T09:35:58;98653.56;;;16.52;76.65
33496;BME280;19836;55.812;37.560;2023-07-13T09:38:29;98646.41;;;16.38;77.18
33496;BME280;19836;55.812;37.560;2023-07-13T09:44:12;98648.56;;;16.33;78.54
33496;BME280;19836;55.812;37.560;2023-07-13T09:46:50;98649.97;;;16.26;79.05
33496;BME280;19836;55.812;37.560;2023-07-13T09:49:18;98638.19;;;16.27;79.48
33496;BME280;19836;55.812;37.560;2023-07-13T09:51:44;98636.44;;;16.26;79.42
33496;BME280;19836;55.812;37.560;2023-07-13T09:54:21;98639.28;;;16.37;80.17
33496;BME280;19836;55.812;37.560;2023-07-13T09:56:47;98634.44;;;16.42;80.16
33496;BME280;19836;55.812;37.560;2023-07-13T09:59:21;98636.06;;;16.45;80.62
33496;BME280;19836;55.812;37.560;2023-07-13T10:01:48;98631.50;;;16.45;80.50
33496;BME280;19836;55.812;37.560;2023-07-13T10:04:17;98640.78;;;16.41;80.86
33496;BME280;19836;55.812;37.560;2023-07-13T10:06:44;98634.72;;;16.38;80.77
33496;BME280;19836;55.812;37.560;2023-07-13T10:09:17;98631.28;;;16.36;80.75
33496;BME280;19836;55.812;37.560;2023-07-13T10:11:44;98632.47;;;16.32;80.78
33496;BME280;19836;55.812;37.560;2023-07-13T10:14:20;98632.00;;;16.25;80.84
33496;BME280;19836;55.812;37.560;2023-07-13T10:17:01;98643.16;;;16.21;80.47
33496;BME280;19836;55.812;37.560;2023-07-13T10:19:32;98638.38;;;15.99;79.93
33496;BME280;19836;55.812;37.560;2023-07-13T10:22:02;98638.81;;;15.93;80.90
33496;BME280;19836;55.812;37.560;2023-07-13T10:24:36;98646.16;;;15.91;80.87
33496;BME280;19836;55.812;37.560;2023-07-13T10:27:18;98637.50;;;15.86;81.35
33496;BME280;19836;55.812;37.560;2023-07-13T10:30:11;98639.63;;;15.81;81.65
33496;BME280;19836;55.812;37.560;2023-07-13T10:32:38;98640.41;;;15.83;81.73
33496;BME280;19836;55.812;37.560;2023-07-13T10:35:05;98638.91;;;15.79;81.95
33496;BME280;19836;55.812;37.560;2023-07-13T10:37:57;98643.31;;;15.80;82.25
33496;BME280;19836;55.812;37.560;2023-07-13T10:40:39;98643.97;;;15.84;83.08
33496;BME280;19836;55.812;37.560;2023-07-13T10:43:14;98648.09;;;15.89;83.30
33496;BME280;19836;55.812;37.560;2023-07-13T10:45:45;98647.44;;;15.73;82.87
33496;BME280;19836;55.812;37.560;2023-07-13T10:48:14;98642.44;;;15.67;83.02
33496;BME280;19836;55.812;37.560;2023-07-13T10:50:43;98660.66;;;15.64;83.41
33496;BME280;19836;55.812;37.560;2023-07-13T10:53:31;98653.75;;;15.60;83.30
33496;BME280;19836;55.812;37.560;2023-07-13T10:56:03;98650.81;;;15.50;83.87
33496;BME280;19836;55.812;37.560;2023-07-13T10:58:37;98643.78;;;15.48;84.59
33496;BME280;19836;55.812;37.560;2023-07-13T11:01:07;98656.06;;;15.39;84.51
33496;BME280;19836;55.812;37.560;2023-07-13T11:03:37;98661.69;;;15.36;84.49
33496;BME280;19836;55.812;37.560;2023-07-13T11:06:11;98656.28;;;15.36;85.34
33496;BME280;19836;55.812;37.560;2023-07-13T11:08:53;98648.50;;;15.44;85.87
33496;BME280;19836;55.812;37.560;2023-07-13T11:21:31;98646.81;;;15.29;85.91
33496;BME280;19836;55.812;37.560;2023-07-13T11:31:51;98644.28;;;15.40;86.92
33496;BME280;19836;55.812;37.560;2023-07-13T11:34:26;98636.66;;;15.47;86.89
33496;BME280;19836;55.812;37.560;2023-07-13T11:36:53;98641.94;;;15.48;87.16
33496;BME280;19836;55.812;37.560;2023-07-13T11:39:32;98645.81;;;15.44;86.82
33496;BME280;19836;55.812;37.560;2023-07-13T11:42:02;98646.88;;;15.42;86.85
33496;BME280;19836;55.812;37.560;2023-07-13T11:44:30;98644.09;;;15.43;87.39
33496;BME280;19836;55.812;37.560;2023-07-13T11:46:59;98643.31;;;15.41;86.94
33496;BME280;19836;55.812;37.560;2023-07-13T11:49:29;98651.41;;;15.41;87.58
33496;BME280;19836;55.812;37.560;2023-07-13T11:51:57;98643.13;;;15.44;88.05
33496;BME280;19836;55.812;37.560;2023-07-13T11:54:30;98649.50;;;15.43;87.47
33496;BME280;19836;55.812;37.560;2023-07-13T11:57:22;98647.78;;;15.42;88.19
33496;BME280;19836;55.812;37.560;2023-07-13T11:59:50;98644.09;;;15.43;88.05
33496;BME280;19836;55.812;37.560;2023-07-13T12:02:49;98652.75;;;15.48;88.09
33496;BME280;19836;55.812;37.560;2023-07-13T12:05:19;98650.16;;;15.47;87.95
33496;BME280;19836;55.812;37.560;2023-07-13T12:07:48;98659.25;;;15.58;88.41
33496;BME280;19836;55.812;37.560;2023-07-13T12:10:21;98653.75;;;15.60;88.52
33496;BME280;19836;55.812;37.560;2023-07-13T12:12:56;98657.13;;;15.63;88.11
33496;BME280;19836;55.812;37.560;2023-07-13T12:15:28;98652.56;;;15.64;88.57
33496;BME280;19836;55.812;37.560;2023-07-13T12:17:56;98649.13;;;15.62;88.28
33496;BME280;19836;55.812;37.560;2023-07-13T12:20:33;98651.91;;;15.60;88.80
33496;BME280;19836;55.812;37.560;2023-07-13T12:23:00;98658.28;;;15.59;88.70
33496;BME280;19836;55.812;37.560;2023-07-13T12:25:28;98652.34;;;15.54;88.67
33496;BME280;19836;55.812;37.560;2023-07-13T12:27:55;98648.09;;;15.50;88.92
33496;BME280;19836;55.812;37.560;2023-07-13T12:30:30;98640.78;;;15.52;89.21
33496;BME280;19836;55.812;37.560;2023-07-13T12:33:02;98634.19;;;15.56;90.09
33496;BME280;19836;55.812;37.560;2023-07-13T12:35:41;98649.00;;;15.63;89.97
33496;BME280;19836;55.812;37.560;2023-07-13T12:38:10;98640.69;;;15.66;90.16
33496;BME280;19836;55.812;37.560;2023-07-13T12:40:36;98642.31;;;15.69;90.78
33496;BME280;19836;55.812;37.560;2023-07-13T12:43:03;98640.41;;;15.71;90.74
33496;BME280;19836;55.812;37.560;2023-07-13T12:45:32;98638.66;;;15.70;90.72
33496;BME280;19836;55.812;37.560;2023-07-13T12:48:18;98647.44;;;15.73;91.02
33496;BME280;19836;55.812;37.560;2023-07-13T12:50:48;98629.59;;;15.71;90.69
33496;BME280;19836;55.812;37.560;2023-07-13T12:53:17;98621.94;;;15.77;91.30
33496;BME280;19836;55.812;37.560;2023-07-13T12:55:59;98625.16;;;15.70;90.86
33496;BME280;19836;55.812;37.560;2023-07-13T12:58:31;98628.38;;;15.62;90.68
33496;BME280;19836;55.812;37.560;2023-07-13T13:01:00;98634.19;;;15.56;90.37
33496;BME280;19836;55.812;37.560;2023-07-13T13:03:38;98626.88;;;15.58;90.79
33496;BME280;19836;55.812;37.560;2023-07-13T13:08:50;98637.00;;;15.55;91.24
33496;BME280;19836;55.812;37.560;2023-07-13T13:11:17;98646.50;;;15.60;91.50
33496;BME280;19836;55.812;37.560;2023-07-13T13:13:43;98638.41;;;15.60;91.50
33496;BME280;19836;55.812;37.560;2023-07-13T13:18:49;98638.50;;;15.59;92.07
33496;BME280;19836;55.812;37.560;2023-07-13T13:21:16;98641.34;;;15.57;92.33
33496;BME280;19836;55.812;37.560;2023-07-13T13:23:42;98625.34;;;15.54;92.22
33496;BME280;19836;55.812;37.560;2023-07-13T13:26:14;98634.19;;;15.56;92.18
33496;BME280;19836;55.812;37.560;2023-07-13T13:28:43;98632.88;;;15.49;91.82
33496;BME280;19836;55.812;37.560;2023-07-13T13:31:11;98614.97;;;15.48;91.85
33496;BME280;19836;55.812;37.560;2023-07-13T13:33:39;98625.75;;;15.48;92.50
33496;BME280;19836;55.812;37.560;2023-07-13T13:36:17;98629.84;;;15.54;92.38
33496;BME280;19836;55.812;37.560;2023-07-13T13:38:44;98621.00;;;15.52;92.53